Time;durP1;ratioP1;P1;durP2;ratioP2;P2;SDS_P1;SDS_P2;PMS_P1;PMS_P2;Temp;Humidity;BMP_temperature;BMP_pressure;BME280_temperature;BME280_humidity;BME280_pressure;Samples;Min_cycle;Max_cycle;Signal;HPM_P1;HPM_P2
2021/07/28 00:01:54;;;;;;;11.97;10.87;;;19.40;99.90;;;;;;5046188;28;20454;-79
2021/07/28 00:04:21;;;;;;;11.70;10.50;;;19.30;99.90;;;;;;5041982;28;20437;-79
2021/07/28 00:06:49;;;;;;;11.80;10.30;;;19.30;99.90;;;;;;5040447;28;20569;-79
2021/07/28 00:09:16;;;;;;;11.67;10.47;;;19.40;99.90;;;;;;5036174;28;20515;-77
2021/07/28 00:11:43;;;;;;;11.97;10.70;;;19.30;99.90;;;;;;5037079;28;20560;-78
2021/07/28 00:14:10;;;;;;;11.47;10.43;;;19.40;99.90;;;;;;5043421;28;20482;-80
2021/07/28 00:16:37;;;;;;;11.80;10.60;;;19.30;99.90;;;;;;5043867;28;20539;-80
2021/07/28 00:19:08;;;;;;;11.53;10.43;;;19.40;99.90;;;;;;5039281;28;20813;-79
2021/07/28 00:24:21;;;;;;;12.83;11.53;;;19.30;99.90;;;;;;5034063;28;20912;-78
2021/07/28 00:26:48;;;;;;;14.70;12.40;;;19.30;99.90;;;;;;5033854;28;20493;-78
2021/07/28 00:29:15;;;;;;;13.13;11.80;;;19.20;99.90;;;;;;5037096;28;20546;-78
2021/07/28 00:31:42;;;;;;;13.87;12.37;;;19.20;99.90;;;;;;5038708;28;20496;-77
2021/07/28 00:34:09;;;;;;;13.40;11.97;;;19.10;99.90;;;;;;5046981;28;20452;-77
2021/07/28 00:36:36;;;;;;;14.90;12.47;;;19.20;99.90;;;;;;5056223;28;20435;-77
2021/07/28 00:39:02;;;;;;;13.90;12.37;;;19.20;99.90;;;;;;5056610;28;20439;-77
2021/07/28 00:41:31;;;;;;;13.50;11.80;;;19.20;99.90;;;;;;5056797;28;20481;-77
2021/07/28 00:43:58;;;;;;;12.73;11.10;;;19.10;99.90;;;;;;5055422;28;20452;-76
2021/07/28 00:46:24;;;;;;;14.33;12.87;;;19.10;99.90;;;;;;5056089;28;20463;-77
2021/07/28 00:48:52;;;;;;;14.40;12.07;;;19.00;99.90;;;;;;5057509;28;20428;-76
2021/07/28 00:51:18;;;;;;;19.07;12.87;;;19.00;99.90;;;;;;5057285;28;20469;-76
2021/07/28 00:53:46;;;;;;;15.10;12.90;;;18.90;99.90;;;;;;5057193;28;20472;-76
2021/07/28 00:56:14;;;;;;;15.87;12.37;;;18.90;99.90;;;;;;5053190;28;20432;-76
2021/07/28 00:58:43;;;;;;;16.33;12.23;;;18.80;99.90;;;;;;5042564;28;20800;-76
2021/07/28 01:01:10;;;;;;;13.67;12.27;;;18.80;99.90;;;;;;5036558;28;20478;-77
2021/07/28 01:03:39;;;;;;;13.73;11.50;;;18.70;99.90;;;;;;5036924;28;20540;-77
2021/07/28 01:06:07;;;;;;;12.00;10.80;;;18.70;99.90;;;;;;5037816;28;20443;-77
2021/07/28 01:08:34;;;;;;;13.73;12.43;;;18.70;99.90;;;;;;5037598;28;20543;-77
2021/07/28 01:11:02;;;;;;;14.63;12.00;;;18.60;99.90;;;;;;5036431;28;20899;-77
2021/07/28 01:13:31;;;;;;;14.07;10.93;;;18.60;99.90;;;;;;5035630;28;20461;-79
2021/07/28 01:16:05;;;;;;;11.57;10.40;;;18.50;99.90;;;;;;5034793;28;20455;-76
2021/07/28 01:18:33;;;;;;;13.77;12.37;;;18.50;99.90;;;;;;5034275;28;20438;-78
2021/07/28 01:21:00;;;;;;;12.60;11.40;;;18.50;99.90;;;;;;5037498;28;20556;-78
2021/07/28 01:23:30;;;;;;;11.37;10.27;;;18.40;99.90;;;;;;5038311;28;20464;-77
2021/07/28 01:26:00;;;;;;;12.33;11.10;;;18.50;99.90;;;;;;5038431;28;20973;-78
2021/07/28 01:28:28;;;;;;;13.13;11.53;;;18.40;99.90;;;;;;5039625;28;20467;-77
2021/07/28 01:31:01;;;;;;;13.43;10.93;;;18.30;99.90;;;;;;5052679;28;20450;-76
2021/07/28 01:33:29;;;;;;;13.37;11.03;;;18.20;99.90;;;;;;5059506;28;20444;-77
2021/07/28 01:35:57;;;;;;;14.33;10.77;;;18.20;99.90;;;;;;5040393;28;20527;-78
2021/07/28 01:38:26;;;;;;;11.93;10.50;;;18.10;99.90;;;;;;5039492;28;20435;-78
2021/07/28 01:40:55;;;;;;;12.27;10.97;;;18.10;99.90;;;;;;5038563;28;20455;-77
2021/07/28 01:43:22;;;;;;;12.70;10.80;;;18.10;99.90;;;;;;5038398;28;20481;-77
2021/07/28 01:45:49;;;;;;;12.37;11.20;;;18.00;99.90;;;;;;5040424;28;20456;-77
2021/07/28 01:48:16;;;;;;;12.73;11.20;;;18.00;99.90;;;;;;5041063;28;20464;-77
2021/07/28 01:50:45;;;;;;;12.80;11.50;;;18.00;99.90;;;;;;5040397;28;20508;-77
2021/07/28 01:53:13;;;;;;;11.80;10.20;;;18.00;99.90;;;;;;5040616;28;20460;-77
2021/07/28 01:55:40;;;;;;;12.10;10.90;;;17.90;99.90;;;;;;5042034;28;20467;-77
2021/07/28 01:58:08;;;;;;;13.30;11.90;;;17.90;99.90;;;;;;5049471;28;20441;-78
2021/07/28 02:00:36;;;;;;;13.50;11.33;;;17.80;99.90;;;;;;5058359;28;20461;-77
2021/07/28 02:03:03;;;;;;;14.00;10.63;;;17.80;99.90;;;;;;5044179;28;20556;-77
2021/07/28 02:05:30;;;;;;;11.43;10.33;;;17.70;99.90;;;;;;5059499;28;20412;-76
2021/07/28 02:08:02;;;;;;;11.10;9.90;;;17.70;99.90;;;;;;5059350;28;20463;-76
2021/07/28 02:10:29;;;;;;;14.00;10.77;;;17.60;99.90;;;;;;5043369;28;20477;-76
2021/07/28 02:12:56;;;;;;;13.13;11.00;;;17.60;99.90;;;;;;5038621;28;20469;-77
2021/07/28 02:15:25;;;;;;;11.73;10.53;;;17.50;99.90;;;;;;5041729;28;20492;-77
2021/07/28 02:17:52;;;;;;;10.67;9.67;;;17.50;99.90;;;;;;5040101;28;20480;-77
2021/07/28 02:20:19;;;;;;;14.77;12.00;;;17.50;99.90;;;;;;5041012;28;20890;-77
2021/07/28 02:22:47;;;;;;;14.20;10.90;;;17.50;99.90;;;;;;5035871;28;20427;-77
2021/07/28 02:25:14;;;;;;;12.77;10.63;;;17.40;99.90;;;;;;5036427;28;20469;-77
2021/07/28 02:27:41;;;;;;;14.17;11.80;;;17.40;99.90;;;;;;5036403;28;20487;-77
2021/07/28 02:30:09;;;;;;;14.70;10.93;;;17.50;99.90;;;;;;5035211;28;21000;-77
2021/07/28 02:32:38;;;;;;;13.50;12.10;;;17.50;99.90;;;;;;5035576;28;20464;-78
2021/07/28 02:35:07;;;;;;;12.33;10.23;;;17.40;99.90;;;;;;5036225;28;20872;-76
2021/07/28 02:37:34;;;;;;;14.13;11.00;;;17.40;99.90;;;;;;5036986;28;20458;-78
2021/07/28 02:40:02;;;;;;;12.37;11.17;;;17.40;99.90;;;;;;5038204;28;20519;-77
2021/07/28 02:42:28;;;;;;;11.87;10.67;;;17.40;99.90;;;;;;5038409;28;20484;-77
2021/07/28 02:44:55;;;;;;;11.10;10.00;;;17.30;99.90;;;;;;5037729;28;20560;-78
2021/07/28 02:47:22;;;;;;;16.93;10.90;;;17.20;99.90;;;;;;5044904;28;20488;-77
2021/07/28 02:49:51;;;;;;;13.73;11.57;;;17.20;99.90;;;;;;5039940;28;20509;-77
2021/07/28 02:52:17;;;;;;;11.20;10.07;;;17.20;99.90;;;;;;5037244;28;20499;-79
2021/07/28 02:54:44;;;;;;;16.03;10.90;;;17.30;99.90;;;;;;5041423;28;20541;-78
2021/07/28 02:57:11;;;;;;;12.23;10.97;;;17.20;99.90;;;;;;5036486;28;20875;-79
2021/07/28 02:59:38;;;;;;;12.67;11.13;;;17.20;99.90;;;;;;5036385;28;20508;-78
2021/07/28 03:02:05;;;;;;;13.87;10.83;;;17.20;99.90;;;;;;5036137;28;20476;-77
2021/07/28 03:04:32;;;;;;;13.17;11.87;;;17.20;99.90;;;;;;5035010;28;20485;-78
2021/07/28 03:07:00;;;;;;;11.93;10.40;;;17.20;99.90;;;;;;5034681;28;20480;-78
2021/07/28 03:09:27;;;;;;;12.23;10.97;;;17.10;99.90;;;;;;5034823;28;20427;-78
2021/07/28 03:11:54;;;;;;;11.30;10.10;;;17.10;99.90;;;;;;5035018;28;20565;-76
2021/07/28 03:14:41;;;;;;;12.00;10.20;;;17.00;99.90;;;;;;5035168;28;20511;-77
2021/07/28 03:17:21;;;;;;;11.50;10.10;;;17.00;99.90;;;;;;5036051;28;20435;-78
2021/07/28 03:19:48;;;;;;;13.33;11.87;;;17.00;99.90;;;;;;5034964;28;20494;-76
2021/07/28 03:22:16;;;;;;;13.30;11.90;;;17.00;99.90;;;;;;5034686;28;20469;-77
2021/07/28 03:24:43;;;;;;;12.37;11.07;;;17.00;99.90;;;;;;5035024;28;20456;-77
2021/07/28 03:27:10;;;;;;;12.90;11.10;;;16.90;99.90;;;;;;5034802;28;20531;-78
2021/07/28 03:29:37;;;;;;;12.70;11.40;;;16.90;99.90;;;;;;5034683;28;20891;-78
2021/07/28 03:32:04;;;;;;;14.20;10.97;;;16.80;99.90;;;;;;5034222;28;20875;-78
2021/07/28 03:34:31;;;;;;;14.20;11.87;;;16.80;99.90;;;;;;5034581;28;20888;-77
2021/07/28 03:36:58;;;;;;;14.33;12.30;;;16.90;99.90;;;;;;5034278;28;20531;-78
2021/07/28 03:39:26;;;;;;;12.87;11.50;;;16.80;99.90;;;;;;5035826;28;20452;-78
2021/07/28 03:41:53;;;;;;;12.57;11.27;;;16.80;99.90;;;;;;5035787;28;20510;-78
2021/07/28 03:44:20;;;;;;;14.00;11.50;;;16.80;99.90;;;;;;5034448;28;20452;-78
2021/07/28 03:46:47;;;;;;;15.07;12.17;;;16.80;99.90;;;;;;5035778;28;20497;-78
2021/07/28 03:49:14;;;;;;;13.20;11.23;;;16.80;99.90;;;;;;5036154;28;20491;-78
2021/07/28 03:51:41;;;;;;;11.70;10.50;;;16.90;99.90;;;;;;5035129;28;20911;-77
2021/07/28 03:54:08;;;;;;;12.43;11.17;;;16.80;99.90;;;;;;5035971;28;20448;-78
2021/07/28 03:56:36;;;;;;;13.20;11.50;;;16.80;99.90;;;;;;5036367;28;20476;-78
2021/07/28 03:59:03;;;;;;;14.57;12.30;;;16.80;99.90;;;;;;5036408;28;20439;-77
2021/07/28 04:01:30;;;;;;;15.30;12.37;;;16.80;99.90;;;;;;5022760;28;20482;-77
2021/07/28 04:03:57;;;;;;;15.13;12.50;;;16.80;99.90;;;;;;5014979;28;20470;-77
2021/07/28 04:06:24;;;;;;;13.07;11.73;;;16.80;99.90;;;;;;5032850;28;20455;-77
2021/07/28 04:08:51;;;;;;;16.63;12.00;;;16.80;99.90;;;;;;5040350;28;20596;-78
2021/07/28 04:11:18;;;;;;;12.83;11.17;;;16.80;99.90;;;;;;5025045;28;20507;-77
2021/07/28 04:13:46;;;;;;;14.13;12.70;;;16.90;99.90;;;;;;5026875;28;20461;-77
2021/07/28 04:16:14;;;;;;;13.77;12.33;;;16.90;99.90;;;;;;5037308;28;20497;-77
2021/07/28 04:18:41;;;;;;;12.90;11.40;;;16.90;99.90;;;;;;5046320;28;20515;-78
2021/07/28 04:21:08;;;;;;;13.33;11.93;;;16.90;99.90;;;;;;5053433;28;20501;-78
2021/07/28 04:23:35;;;;;;;13.10;10.90;;;17.00;99.90;;;;;;5052999;28;20484;-77
2021/07/28 04:26:01;;;;;;;13.57;11.23;;;17.00;99.90;;;;;;5047707;28;20446;-77
2021/07/28 04:28:28;;;;;;;11.70;10.50;;;17.10;99.90;;;;;;5040672;28;20534;-75
2021/07/28 04:30:57;;;;;;;12.50;11.07;;;17.20;99.90;;;;;;5039731;28;20459;-77
2021/07/28 04:33:24;;;;;;;12.73;11.43;;;17.30;99.90;;;;;;5042309;28;20946;-77
2021/07/28 04:35:51;;;;;;;12.17;10.63;;;17.40;99.90;;;;;;5033885;28;20468;-77
2021/07/28 04:38:18;;;;;;;12.70;10.23;;;17.50;99.90;;;;;;5034388;28;20478;-78
2021/07/28 04:40:45;;;;;;;11.83;10.57;;;17.60;99.90;;;;;;5033873;28;20576;-77
2021/07/28 04:43:12;;;;;;;10.17;9.17;;;17.70;99.90;;;;;;5033422;28;20461;-78
2021/07/28 04:45:39;;;;;;;14.30;9.10;;;17.80;99.90;;;;;;5034868;28;20453;-77
2021/07/28 04:48:08;;;;;;;9.90;8.90;;;17.90;99.90;;;;;;5033606;28;20497;-77
2021/07/28 04:50:35;;;;;;;10.40;9.20;;;17.90;99.90;;;;;;5034538;28;20517;-77
2021/07/28 04:53:03;;;;;;;9.63;8.63;;;17.90;99.90;;;;;;5033194;28;20454;-78
2021/07/28 04:55:30;;;;;;;10.03;8.90;;;18.00;99.90;;;;;;5033304;28;20473;-76
2021/07/28 04:57:57;;;;;;;10.43;9.43;;;18.00;99.90;;;;;;5033836;28;20489;-78
2021/07/28 05:00:24;;;;;;;10.33;9.33;;;18.00;99.90;;;;;;5044028;28;20512;-77
2021/07/28 05:02:51;;;;;;;9.60;8.70;;;18.10;99.90;;;;;;5049837;28;20462;-76
2021/07/28 05:05:20;;;;;;;10.00;9.00;;;18.10;99.90;;;;;;5044724;28;20536;-77
2021/07/28 05:07:47;;;;;;;9.00;8.10;;;18.10;99.90;;;;;;5041870;28;20960;-76
2021/07/28 05:10:14;;;;;;;11.87;9.13;;;18.20;99.90;;;;;;5051795;28;20455;-77
2021/07/28 05:12:41;;;;;;;11.33;9.13;;;18.20;99.90;;;;;;5052774;28;20470;-76
2021/07/28 05:15:09;;;;;;;9.53;8.50;;;18.30;99.90;;;;;;5054821;28;20452;-77
2021/07/28 05:17:36;;;;;;;13.53;9.33;;;18.40;99.90;;;;;;5054300;28;20450;-78
2021/07/28 05:20:03;;;;;;;9.93;9.00;;;18.50;99.90;;;;;;5053321;28;20480;-78
2021/07/28 05:22:32;;;;;;;9.57;8.57;;;18.50;99.90;;;;;;5050122;28;20457;-78
2021/07/28 05:24:59;;;;;;;9.67;8.57;;;18.60;99.90;;;;;;5043468;28;20428;-78
2021/07/28 05:27:26;;;;;;;10.33;8.87;;;18.60;99.90;;;;;;5040964;28;21008;-78
2021/07/28 05:29:53;;;;;;;9.53;8.40;;;18.60;99.90;;;;;;5039440;28;21002;-77
2021/07/28 05:32:21;;;;;;;9.30;8.40;;;18.70;99.90;;;;;;5039437;28;20458;-77
2021/07/28 05:34:48;;;;;;;12.47;9.27;;;18.70;99.90;;;;;;5040161;28;20547;-77
2021/07/28 05:37:15;;;;;;;10.87;8.53;;;18.80;99.90;;;;;;5034411;28;20487;-77
2021/07/28 05:39:43;;;;;;;9.33;8.43;;;18.90;99.90;;;;;;5033037;28;20961;-76
2021/07/28 05:42:11;;;;;;;9.90;8.40;;;18.90;99.90;;;;;;5033094;28;20898;-76
2021/07/28 05:44:38;;;;;;;10.07;9.07;;;18.90;99.90;;;;;;5033246;28;20457;-77
2021/07/28 05:47:05;;;;;;;11.70;9.83;;;18.90;99.90;;;;;;5033213;28;20864;-77
2021/07/28 05:49:32;;;;;;;10.67;9.50;;;18.90;99.90;;;;;;5033132;28;20880;-76
2021/07/28 05:51:59;;;;;;;12.80;8.80;;;18.90;99.40;;;;;;5033293;28;20474;-77
2021/07/28 05:54:26;;;;;;;12.20;9.80;;;18.90;99.50;;;;;;5032663;28;20547;-76
2021/07/28 05:56:54;;;;;;;11.30;8.70;;;18.90;98.90;;;;;;5033225;28;20466;-76
2021/07/28 05:59:21;;;;;;;9.73;8.70;;;18.90;98.60;;;;;;5033149;28;20452;-77
2021/07/28 06:01:48;;;;;;;9.90;8.50;;;19.00;98.90;;;;;;5034800;28;20949;-77
2021/07/28 06:04:15;;;;;;;11.13;7.87;;;19.00;98.60;;;;;;5033118;28;20497;-79
2021/07/28 06:06:42;;;;;;;10.53;9.27;;;19.00;97.70;;;;;;5034970;28;20967;-78
2021/07/28 06:09:09;;;;;;;9.03;8.17;;;19.10;97.40;;;;;;5039112;28;20532;-77
2021/07/28 06:11:36;;;;;;;9.23;8.33;;;19.20;97.00;;;;;;5037481;28;20520;-77
2021/07/28 06:14:06;;;;;;;9.63;8.33;;;19.20;96.00;;;;;;5038545;28;20493;-77
2021/07/28 06:16:33;;;;;;;9.07;8.23;;;19.10;96.20;;;;;;5045373;28;20462;-79
2021/07/28 06:19:00;;;;;;;8.93;7.40;;;19.10;96.80;;;;;;5039628;28;20452;-77
2021/07/28 06:21:27;;;;;;;9.87;8.80;;;19.20;96.60;;;;;;5042150;28;20504;-79
2021/07/28 06:23:54;;;;;;;10.50;8.40;;;19.30;95.80;;;;;;5044756;28;20535;-79
2021/07/28 06:26:20;;;;;;;8.83;7.93;;;19.30;95.10;;;;;;5047360;28;20449;-79
2021/07/28 06:28:47;;;;;;;9.27;7.70;;;19.40;95.20;;;;;;5054635;28;20477;-78
2021/07/28 06:31:15;;;;;;;8.50;7.70;;;19.50;94.30;;;;;;5057468;28;20476;-79
2021/07/28 06:33:42;;;;;;;8.00;7.23;;;19.60;93.30;;;;;;5058380;28;20444;-79
2021/07/28 06:36:09;;;;;;;8.73;7.60;;;19.60;92.70;;;;;;5053986;28;21044;-79
2021/07/28 06:38:36;;;;;;;9.33;8.37;;;19.60;92.00;;;;;;5041299;28;20486;-79
2021/07/28 06:41:03;;;;;;;9.77;8.27;;;19.60;92.80;;;;;;5046346;28;20466;-80
2021/07/28 06:43:31;;;;;;;8.60;7.67;;;19.70;92.50;;;;;;5045018;28;20436;-80
2021/07/28 06:45:59;;;;;;;8.23;7.43;;;19.80;91.60;;;;;;5047661;28;20456;-79
2021/07/28 06:48:29;;;;;;;11.83;7.90;;;19.90;91.60;;;;;;5050489;28;20463;-79
2021/07/28 06:50:56;;;;;;;10.03;8.00;;;20.00;91.20;;;;;;5048636;28;20524;-82
2021/07/28 06:53:24;;;;;;;9.43;7.27;;;20.10;90.30;;;;;;5048382;28;20444;-81
2021/07/28 06:55:52;;;;;;;7.70;6.90;;;20.10;89.90;;;;;;5050274;28;20434;-78
2021/07/28 06:58:19;;;;;;;11.83;7.17;;;20.20;89.20;;;;;;5045130;28;20872;-79
2021/07/28 07:00:46;;;;;;;8.40;7.50;;;20.20;87.60;;;;;;5044346;28;20574;-79
2021/07/28 07:03:13;;;;;;;10.00;7.50;;;20.10;88.90;;;;;;5036649;28;20430;-78
2021/07/28 07:05:42;;;;;;;7.83;7.03;;;20.30;88.10;;;;;;5036439;28;20525;-79
2021/07/28 07:08:09;;;;;;;7.70;7.00;;;20.40;85.80;;;;;;5040550;28;20459;-79
2021/07/28 07:10:36;;;;;;;8.57;7.53;;;20.30;86.30;;;;;;5040219;28;20497;-79
2021/07/28 07:13:05;;;;;;;9.67;6.70;;;20.40;84.30;;;;;;5037236;28;20742;-79
2021/07/28 07:15:32;;;;;;;7.37;6.67;;;20.40;85.20;;;;;;5038164;28;20516;-80
2021/07/28 07:17:59;;;;;;;9.20;7.30;;;20.60;83.00;;;;;;5037931;28;20483;-80
2021/07/28 07:20:26;;;;;;;6.83;6.03;;;20.60;81.60;;;;;;5037857;28;20563;-80
2021/07/28 07:22:54;;;;;;;8.63;6.80;;;20.60;80.10;;;;;;5037092;28;20465;-79
2021/07/28 07:25:21;;;;;;;6.87;6.27;;;20.70;79.90;;;;;;5037558;28;20469;-78
2021/07/28 07:27:48;;;;;;;12.20;7.60;;;20.70;79.10;;;;;;5037288;28;20459;-78
2021/07/28 07:30:15;;;;;;;6.90;6.20;;;20.80;79.40;;;;;;5038122;28;20527;-80
2021/07/28 07:32:42;;;;;;;6.93;6.20;;;20.70;79.20;;;;;;5041442;28;20531;-79
2021/07/28 07:35:10;;;;;;;7.97;7.20;;;20.90;77.60;;;;;;5040316;28;20460;-80
2021/07/28 07:37:36;;;;;;;6.80;6.10;;;21.00;77.70;;;;;;5039415;28;20512;-79
2021/07/28 07:40:08;;;;;;;7.80;5.50;;;21.20;74.10;;;;;;5047730;28;20473;-80
2021/07/28 07:42:35;;;;;;;10.63;6.33;;;21.20;74.40;;;;;;5043989;28;20431;-78
2021/07/28 07:45:02;;;;;;;11.83;6.70;;;21.20;73.40;;;;;;5045774;28;20476;-80
2021/07/28 07:47:29;;;;;;;7.67;6.97;;;21.10;73.30;;;;;;5046463;28;20416;-80
2021/07/28 07:49:56;;;;;;;8.57;6.20;;;21.20;74.40;;;;;;5042376;28;20492;-80
2021/07/28 07:52:23;;;;;;;7.17;6.30;;;21.30;72.80;;;;;;5048323;28;20412;-80
2021/07/28 07:54:50;;;;;;;6.40;5.80;;;21.50;71.50;;;;;;5039351;28;20432;-79
2021/07/28 07:57:19;;;;;;;6.40;5.70;;;21.50;71.30;;;;;;5038016;28;20512;-79
2021/07/28 07:59:46;;;;;;;8.07;6.40;;;21.70;70.50;;;;;;5047026;28;20444;-79
2021/07/28 08:02:12;;;;;;;7.47;5.60;;;21.90;69.50;;;;;;5045003;28;20465;-80
2021/07/28 08:04:39;;;;;;;6.20;5.60;;;22.10;67.10;;;;;;5039489;28;20499;-80
2021/07/28 08:07:06;;;;;;;5.80;5.13;;;22.20;66.50;;;;;;5038974;28;20459;-80
2021/07/28 08:09:33;;;;;;;6.90;6.30;;;22.30;64.30;;;;;;5040655;28;20460;-79
2021/07/28 08:12:00;;;;;;;6.47;5.87;;;22.40;63.70;;;;;;5044682;28;20522;-80
2021/07/28 08:14:29;;;;;;;6.37;5.60;;;22.30;63.50;;;;;;5050369;28;20491;-80
2021/07/28 08:16:56;;;;;;;7.10;5.87;;;22.60;61.50;;;;;;5051206;28;20457;-80
2021/07/28 08:19:23;;;;;;;6.33;5.73;;;22.80;61.10;;;;;;5045852;28;20453;-80
2021/07/28 08:21:49;;;;;;;5.40;4.77;;;22.90;60.00;;;;;;5048000;28;20480;-79
2021/07/28 08:24:21;;;;;;;6.20;5.70;;;23.10;59.00;;;;;;5055120;28;20450;-79
2021/07/28 08:26:48;;;;;;;6.20;5.63;;;23.20;57.80;;;;;;5053326;28;20462;-80
2021/07/28 08:29:15;;;;;;;9.60;5.87;;;22.90;56.80;;;;;;5054380;28;20474;-80
2021/07/28 08:31:43;;;;;;;7.80;5.60;;;22.60;58.60;;;;;;5052396;28;20409;-81
2021/07/28 08:34:10;;;;;;;11.20;5.97;;;22.70;57.90;;;;;;5045059;28;20473;-80
2021/07/28 08:36:37;;;;;;;6.40;5.90;;;22.70;58.90;;;;;;5041746;28;20471;-79
2021/07/28 08:39:05;;;;;;;6.63;6.03;;;22.90;58.40;;;;;;5048087;28;20421;-80
2021/07/28 08:41:35;;;;;;;6.40;5.80;;;22.90;57.20;;;;;;5047088;28;20474;-80
2021/07/28 08:44:10;;;;;;;8.43;5.60;;;22.80;58.10;;;;;;5048923;28;20465;-80
2021/07/28 08:46:37;;;;;;;5.47;5.07;;;22.70;58.00;;;;;;5043893;28;20462;-81
2021/07/28 08:49:06;;;;;;;7.63;5.93;;;22.60;58.80;;;;;;5054550;28;20495;-82
2021/07/28 08:51:33;;;;;;;5.87;5.27;;;22.70;61.00;;;;;;5047072;28;20560;-84
2021/07/28 08:53:59;;;;;;;6.83;5.50;;;23.10;58.30;;;;;;5057193;28;20454;-83
2021/07/28 08:56:26;;;;;;;7.17;6.40;;;23.10;56.60;;;;;;5052467;28;20454;-81
2021/07/28 08:58:53;;;;;;;8.60;5.50;;;23.00;57.10;;;;;;5045772;28;20508;-81
2021/07/28 09:01:20;;;;;;;7.77;5.70;;;23.00;56.60;;;;;;5045007;28;20478;-81
2021/07/28 09:03:47;;;;;;;6.00;5.40;;;23.00;56.90;;;;;;5044811;28;20455;-80
2021/07/28 09:06:32;;;;;;;6.27;5.77;;;23.10;58.30;;;;;;5051608;28;20435;-80
2021/07/28 09:09:00;;;;;;;5.43;4.93;;;23.20;57.20;;;;;;5055077;28;20442;-81
2021/07/28 09:11:27;;;;;;;7.70;5.67;;;23.40;57.50;;;;;;5051660;28;20470;-80
2021/07/28 09:13:56;;;;;;;5.50;5.00;;;23.70;55.60;;;;;;5053369;28;20437;-80
2021/07/28 09:16:23;;;;;;;8.57;5.70;;;23.70;55.00;;;;;;5052465;28;20451;-80
2021/07/28 09:18:52;;;;;;;8.87;6.17;;;23.60;55.30;;;;;;5050264;28;20421;-80
2021/07/28 09:21:30;;;;;;;6.43;5.83;;;23.50;56.40;;;;;;5051886;28;20485;-81
2021/07/28 09:24:08;;;;;;;5.60;5.10;;;23.60;56.00;;;;;;5051958;28;20442;-80
2021/07/28 09:26:39;;;;;;;6.40;5.80;;;23.60;54.80;;;;;;5046385;28;20426;-80
2021/07/28 09:29:08;;;;;;;6.10;5.60;;;23.30;54.90;;;;;;5045479;28;20453;-80
2021/07/28 09:31:40;;;;;;;6.60;5.53;;;23.40;54.70;;;;;;5049443;28;20466;-79
2021/07/28 09:34:36;;;;;;;8.63;5.30;;;23.30;54.70;;;;;;5057339;28;20442;-83
2021/07/28 09:37:10;;;;;;;5.77;5.20;;;23.40;55.30;;;;;;5049028;28;20430;-85
2021/07/28 09:39:38;;;;;;;8.63;5.20;;;23.70;53.60;;;;;;5051722;28;20463;-81
2021/07/28 09:42:12;;;;;;;5.83;5.23;;;23.90;53.60;;;;;;5054900;28;20433;-79
2021/07/28 09:44:41;;;;;;;6.20;5.60;;;24.10;52.70;;;;;;5053794;28;20526;-80
2021/07/28 09:47:13;;;;;;;6.30;4.97;;;24.30;51.50;;;;;;5055334;28;20445;-80
2021/07/28 09:49:40;;;;;;;6.33;5.70;;;24.10;51.60;;;;;;5054533;28;20528;-79
2021/07/28 09:52:34;;;;;;;5.53;5.00;;;24.00;52.20;;;;;;5052879;28;20470;-78
2021/07/28 09:55:22;;;;;;;7.63;5.37;;;24.00;52.60;;;;;;5050047;28;20451;-78
2021/07/28 09:57:55;;;;;;;9.37;5.40;;;24.10;52.70;;;;;;5049786;28;20447;-79
2021/07/28 10:00:22;;;;;;;5.80;5.30;;;24.20;52.80;;;;;;5042171;28;20542;-78
2021/07/28 10:02:55;;;;;;;6.23;5.63;;;24.30;50.40;;;;;;5052089;28;20464;-77
2021/07/28 10:05:23;;;;;;;5.30;4.80;;;24.20;50.20;;;;;;5044122;28;20461;-79
2021/07/28 10:07:52;;;;;;;5.60;5.10;;;23.90;50.70;;;;;;5045300;28;20503;-80
2021/07/28 10:10:20;;;;;;;7.93;5.37;;;23.60;52.20;;;;;;5054068;28;20493;-80
2021/07/28 10:12:50;;;;;;;5.77;5.17;;;23.50;52.10;;;;;;5052121;28;20457;-80
2021/07/28 10:15:20;;;;;;;5.97;5.37;;;23.70;52.30;;;;;;5053486;28;20430;-79
2021/07/28 10:17:47;;;;;;;5.33;4.83;;;23.70;50.90;;;;;;5051413;28;20453;-80
2021/07/28 10:20:15;;;;;;;5.23;4.80;;;23.80;50.20;;;;;;5054142;28;20454;-81
2021/07/28 10:22:44;;;;;;;6.63;5.83;;;24.00;50.00;;;;;;5052608;28;20478;-80
2021/07/28 10:25:14;;;;;;;7.30;5.30;;;24.00;50.40;;;;;;5043219;28;20450;-80
2021/07/28 10:27:43;;;;;;;10.50;5.17;;;24.00;48.90;;;;;;5042724;28;20441;-79
2021/07/28 10:30:14;;;;;;;5.90;5.30;;;24.10;49.20;;;;;;5043886;28;20900;-79
2021/07/28 10:32:42;;;;;;;5.70;5.10;;;24.00;48.80;;;;;;5045825;28;20528;-79
2021/07/28 10:35:22;;;;;;;5.97;5.37;;;24.10;49.20;;;;;;5052257;28;20458;-79
2021/07/28 10:37:49;;;;;;;7.27;5.33;;;24.30;46.60;;;;;;5047422;28;20512;-78
2021/07/28 10:40:51;;;;;;;7.60;5.00;;;24.20;47.50;;;;;;5051340;28;20528;-81
2021/07/28 10:43:18;;;;;;;5.17;4.63;;;24.10;47.90;;;;;;5052762;28;20491;-80
2021/07/28 10:46:01;;;;;;;5.60;5.10;;;24.20;48.50;;;;;;5051376;28;20824;-80
2021/07/28 10:48:59;;;;;;;6.00;4.60;;;24.70;47.30;;;;;;5049144;28;20493;-79
2021/07/28 10:51:53;;;;;;;6.10;5.47;;;25.00;45.60;;;;;;5106317;22;20494;-82
2021/07/28 10:54:59;;;;;;;5.20;4.80;;;24.90;45.70;;;;;;5056729;28;20454;-82
2021/07/28 10:58:14;;;;;;;5.20;4.80;;;24.70;45.20;;;;;;5081087;28;20517;-82
2021/07/28 11:00:50;;;;;;;8.53;5.30;;;24.80;44.80;;;;;;5018604;28;20578;-81
2021/07/28 11:03:19;;;;;;;6.17;5.13;;;24.90;45.10;;;;;;5024708;28;20436;-83
2021/07/28 11:05:49;;;;;;;5.43;4.93;;;25.00;43.50;;;;;;5061525;28;20928;-81
2021/07/28 11:08:20;;;;;;;5.30;4.80;;;24.90;43.40;;;;;;5087526;28;20454;-84
2021/07/28 11:10:53;;;;;;;6.47;4.70;;;24.80;43.90;;;;;;5092923;28;20513;-83
2021/07/28 11:13:21;;;;;;;5.47;5.07;;;24.80;44.50;;;;;;5098446;28;20479;-82
2021/07/28 11:15:55;;;;;;;5.80;5.30;;;25.00;44.70;;;;;;5097935;28;20455;-83
2021/07/28 11:18:38;;;;;;;6.07;5.53;;;25.20;43.60;;;;;;5096004;28;20441;-82
2021/07/28 11:21:13;;;;;;;5.30;4.80;;;25.00;43.50;;;;;;5093811;28;20473;-82
2021/07/28 11:23:46;;;;;;;5.30;4.80;;;24.90;43.80;;;;;;5088776;28;20843;-80
2021/07/28 11:26:17;;;;;;;5.00;4.50;;;25.10;43.50;;;;;;5102045;28;20442;-84
2021/07/28 11:28:45;;;;;;;5.77;4.97;;;25.00;43.50;;;;;;5118854;28;20416;-84
2021/07/28 11:31:14;;;;;;;7.43;4.90;;;24.80;43.30;;;;;;5109039;28;20485;-83
2021/07/28 11:33:42;;;;;;;5.77;4.53;;;24.80;43.30;;;;;;5086998;28;20525;-82
2021/07/28 11:36:09;;;;;;;5.57;5.07;;;24.90;43.40;;;;;;5096282;28;20457;-81
2021/07/28 11:38:37;;;;;;;5.07;4.57;;;25.10;43.50;;;;;;5095334;28;20506;-82
2021/07/28 11:41:09;;;;;;;6.57;4.50;;;25.30;41.60;;;;;;5092632;28;20473;-82
2021/07/28 11:43:39;;;;;;;7.37;5.20;;;25.10;42.10;;;;;;5088266;28;20469;-82
2021/07/28 11:46:12;;;;;;;5.10;4.63;;;25.10;42.70;;;;;;5078964;28;20515;-83
2021/07/28 11:48:44;;;;;;;5.20;4.70;;;25.20;41.80;;;;;;5079725;28;20463;-83
2021/07/28 11:51:12;;;;;;;5.10;4.70;;;25.30;41.60;;;;;;5087329;28;20491;-83
2021/07/28 11:53:39;;;;;;;5.67;5.10;;;25.20;41.30;;;;;;5094087;28;20442;-82
2021/07/28 11:56:07;;;;;;;5.73;4.90;;;25.50;41.30;;;;;;5080418;28;20457;-83
2021/07/28 11:58:35;;;;;;;6.70;4.50;;;25.40;41.00;;;;;;5091638;28;20456;-81
2021/07/28 12:01:28;;;;;;;5.33;4.73;;;25.50;41.40;;;;;;5090227;28;20513;-83
2021/07/28 12:03:57;;;;;;;6.83;4.20;;;25.80;40.60;;;;;;5085932;28;20966;-82
2021/07/28 12:06:34;;;;;;;5.17;4.40;;;25.70;40.50;;;;;;5085631;28;20458;-83
2021/07/28 12:09:09;;;;;;;6.30;4.40;;;25.80;40.30;;;;;;5080977;28;20718;-83
2021/07/28 12:12:04;;;;;;;6.13;4.80;;;25.90;39.60;;;;;;5085330;28;20918;-83
2021/07/28 12:14:33;;;;;;;4.20;3.80;;;26.10;38.60;;;;;;5054642;28;20492;-82
2021/07/28 12:17:02;;;;;;;5.03;4.53;;;26.10;38.40;;;;;;5090359;28;20629;-84
2021/07/28 12:19:34;;;;;;;5.13;3.83;;;26.20;39.20;;;;;;5086723;28;20478;-84
2021/07/28 12:22:04;;;;;;;6.73;4.70;;;26.30;37.70;;;;;;5084036;28;20554;-83
2021/07/28 12:24:35;;;;;;;5.53;4.80;;;26.60;37.30;;;;;;5089861;28;20443;-83
2021/07/28 12:27:37;;;;;;;7.03;4.10;;;26.80;36.20;;;;;;5089147;28;20436;-83
2021/07/28 12:30:08;;;;;;;4.93;4.43;;;26.80;37.00;;;;;;5082715;28;20971;-82
2021/07/28 12:32:37;;;;;;;4.40;4.00;;;26.80;36.60;;;;;;5085350;28;20426;-83
2021/07/28 12:35:27;;;;;;;4.73;4.33;;;27.00;35.80;;;;;;5080492;28;20428;-83
2021/07/28 12:38:10;;;;;;;4.47;4.07;;;27.20;35.80;;;;;;5080304;28;20531;-83
2021/07/28 12:40:39;;;;;;;9.33;4.27;;;27.30;34.70;;;;;;5078661;28;20468;-84
2021/07/28 12:43:07;;;;;;;4.33;3.67;;;27.40;34.80;;;;;;5080389;28;20452;-83
2021/07/28 12:45:34;;;;;;;4.70;4.30;;;27.50;34.90;;;;;;5085397;28;20453;-83
2021/07/28 12:48:01;;;;;;;3.67;3.37;;;27.30;34.70;;;;;;5081569;28;20435;-83
2021/07/28 12:50:29;;;;;;;3.97;3.57;;;27.20;34.70;;;;;;5081282;28;20587;-82
2021/07/28 12:52:57;;;;;;;4.87;4.10;;;26.90;34.50;;;;;;5086969;28;20459;-82